Time;durP1;ratioP1;P1;durP2;ratioP2;P2;SDS_P1;SDS_P2;PMS_P1;PMS_P2;Temp;Humidity;BMP_temperature;BMP_pressure;BME280_temperature;BME280_humidity;BME280_pressure;Samples;Min_cycle;Max_cycle;Signal;HPM_P1;HPM_P2
2022/06/15 00:00:58;;;;;;;22.10;6.90;;;;;;;;;;4874479;29;20068;-74
2022/06/15 00:03:32;;;;;;;17.88;6.00;;;;;;;;;;4840149;29;20065;-71
2022/06/15 00:06:17;;;;;;;15.65;6.72;;;;;;;;;;4851573;29;20088;-75
2022/06/15 00:08:52;;;;;;;17.92;6.93;;;;;;;;;;4858890;29;20048;-73
2022/06/15 00:11:30;;;;;;;15.35;6.90;;;;;;;;;;4873829;29;20722;-76
2022/06/15 00:14:03;;;;;;;16.60;6.68;;;;;;;;;;4858780;29;20433;-76
2022/06/15 00:16:33;;;;;;;16.30;7.35;;;;;;;;;;4858313;29;20072;-73
2022/06/15 00:19:04;;;;;;;18.85;8.65;;;;;;;;;;4876754;29;20049;-75
2022/06/15 00:21:35;;;;;;;20.02;8.82;;;;;;;;;;4876799;29;20523;-75
2022/06/15 00:24:05;;;;;;;20.33;7.00;;;;;;;;;;4857898;29;20053;-75
2022/06/15 00:26:36;;;;;;;17.55;7.13;;;;;;;;;;4842585;29;20406;-73
2022/06/15 00:29:06;;;;;;;16.25;7.38;;;;;;;;;;4857822;29;20064;-74
2022/06/15 00:31:37;;;;;;;17.48;6.43;;;;;;;;;;4828305;29;20061;-73
2022/06/15 00:34:09;;;;;;;15.88;6.97;;;;;;;;;;4857995;29;20498;-74
2022/06/15 00:36:39;;;;;;;18.15;7.53;;;;;;;;;;4857854;29;20073;-73
2022/06/15 00:39:10;;;;;;;15.82;7.05;;;;;;;;;;4872885;29;20433;-74
2022/06/15 00:41:44;;;;;;;15.38;6.85;;;;;;;;;;4876400;29;20057;-75
2022/06/15 00:44:20;;;;;;;19.15;7.65;;;;;;;;;;4872634;29;20101;-75
2022/06/15 00:47:00;;;;;;;17.08;6.78;;;;;;;;;;4894266;29;20057;-67
2022/06/15 00:49:53;;;;;;;14.75;6.22;;;;;;;;;;4879494;29;20129;-74
2022/06/15 00:52:32;;;;;;;17.90;6.78;;;;;;;;;;4839121;29;20740;-73
2022/06/15 00:55:09;;;;;;;13.13;5.80;;;;;;;;;;4839538;29;20062;-74
2022/06/15 00:57:41;;;;;;;18.60;6.38;;;;;;;;;;4837176;29;20065;-70
2022/06/15 01:00:12;;;;;;;13.95;6.53;;;;;;;;;;4839183;29;20073;-74
2022/06/15 01:02:43;;;;;;;15.10;5.68;;;;;;;;;;4855534;29;20065;-73
2022/06/15 01:05:17;;;;;;;16.90;6.00;;;;;;;;;;4838959;29;20053;-74
2022/06/15 01:08:11;;;;;;;19.95;6.35;;;;;;;;;;4820514;29;20063;-74
2022/06/15 01:10:53;;;;;;;21.10;7.15;;;;;;;;;;4820629;29;20054;-73
2022/06/15 01:14:09;;;;;;;14.50;6.03;;;;;;;;;;4820524;29;20570;-71
2022/06/15 01:16:51;;;;;;;15.13;5.95;;;;;;;;;;4790141;29;20095;-74
2022/06/15 01:19:36;;;;;;;18.02;6.60;;;;;;;;;;4820307;29;20050;-73
2022/06/15 01:22:30;;;;;;;15.70;6.00;;;;;;;;;;4809920;29;20059;-72
2022/06/15 01:25:28;;;;;;;13.23;5.30;;;;;;;;;;4802456;29;20527;-71
2022/06/15 01:28:16;;;;;;;16.48;5.78;;;;;;;;;;4802156;29;20424;-73
2022/06/15 01:30:53;;;;;;;17.85;6.82;;;;;;;;;;4853242;29;20050;-72
2022/06/15 01:33:39;;;;;;;16.42;6.40;;;;;;;;;;4838830;29;20057;-72
2022/06/15 01:36:39;;;;;;;16.85;6.00;;;;;;;;;;4841369;29;20049;-73
2022/06/15 01:39:24;;;;;;;14.55;6.05;;;;;;;;;;4856967;29;20096;-72
2022/06/15 01:41:59;;;;;;;16.35;6.10;;;;;;;;;;4858838;29;20045;-71
2022/06/15 01:44:36;;;;;;;17.63;6.07;;;;;;;;;;4863839;29;20067;-72
2022/06/15 01:47:18;;;;;;;15.57;6.13;;;;;;;;;;4863039;29;20061;-71
2022/06/15 01:50:02;;;;;;;17.15;6.60;;;;;;;;;;4874900;29;20056;-72
2022/06/15 01:52:38;;;;;;;18.52;6.78;;;;;;;;;;4866328;29;20068;-73
2022/06/15 01:55:19;;;;;;;14.65;5.53;;;;;;;;;;4893792;29;20053;-72
2022/06/15 01:57:53;;;;;;;17.13;6.38;;;;;;;;;;4862765;29;20525;-72
2022/06/15 02:00:23;;;;;;;16.73;6.70;;;;;;;;;;4860142;29;20058;-72
2022/06/15 02:02:58;;;;;;;17.48;5.45;;;;;;;;;;4826400;29;20054;-72
2022/06/15 02:06:06;;;;;;;11.38;5.35;;;;;;;;;;4860481;29;20383;-71
2022/06/15 02:08:58;;;;;;;11.13;5.50;;;;;;;;;;4841740;29;20065;-71
2022/06/15 02:11:34;;;;;;;13.48;6.00;;;;;;;;;;4805177;29;20085;-71
2022/06/15 02:14:26;;;;;;;23.30;6.93;;;;;;;;;;4787196;29;20062;-70
2022/06/15 02:17:08;;;;;;;15.52;5.93;;;;;;;;;;4769234;30;20456;-71
2022/06/15 02:19:43;;;;;;;12.70;5.65;;;;;;;;;;4769291;30;20056;-72
2022/06/15 02:22:23;;;;;;;14.98;4.82;;;;;;;;;;4769209;30;20052;-71
2022/06/15 02:24:57;;;;;;;10.52;5.10;;;;;;;;;;4729938;30;20623;-72
2022/06/15 02:27:30;;;;;;;13.73;5.25;;;;;;;;;;4777686;29;20055;-72
2022/06/15 02:30:10;;;;;;;13.77;5.03;;;;;;;;;;4786709;29;20055;-72
2022/06/15 02:32:47;;;;;;;14.45;6.30;;;;;;;;;;4791034;29;20050;-71
2022/06/15 02:35:19;;;;;;;10.98;4.88;;;;;;;;;;4822919;29;20054;-72
2022/06/15 02:37:51;;;;;;;14.20;5.35;;;;;;;;;;4808004;29;20491;-72
2022/06/15 02:40:24;;;;;;;12.93;5.10;;;;;;;;;;4806988;29;20076;-72
2022/06/15 02:42:55;;;;;;;13.18;5.38;;;;;;;;;;4796396;29;20180;-72
2022/06/15 02:45:34;;;;;;;11.27;5.07;;;;;;;;;;4807319;29;20055;-72
2022/06/15 02:48:09;;;;;;;15.10;4.68;;;;;;;;;;4803884;29;20056;-73
2022/06/15 02:51:02;;;;;;;10.73;4.65;;;;;;;;;;4769715;30;20693;-72
2022/06/15 02:53:37;;;;;;;11.57;5.13;;;;;;;;;;4786637;30;20070;-72
2022/06/15 02:56:11;;;;;;;15.50;4.55;;;;;;;;;;4774822;29;20059;-73
2022/06/15 02:58:45;;;;;;;14.90;4.75;;;;;;;;;;4804518;29;20066;-73
2022/06/15 03:01:16;;;;;;;14.40;5.55;;;;;;;;;;4788801;29;20051;-72
2022/06/15 03:03:48;;;;;;;12.30;5.30;;;;;;;;;;4840620;29;20084;-72
2022/06/15 03:06:27;;;;;;;9.63;4.85;;;;;;;;;;4822313;29;20055;-71
2022/06/15 03:09:03;;;;;;;12.90;4.70;;;;;;;;;;4822213;29;20170;-73
2022/06/15 03:11:40;;;;;;;14.18;4.97;;;;;;;;;;4803413;29;20503;-72
2022/06/15 03:14:17;;;;;;;9.68;4.18;;;;;;;;;;4832251;29;20054;-72
2022/06/15 03:16:50;;;;;;;17.73;4.60;;;;;;;;;;4803954;29;20059;-73
2022/06/15 03:19:23;;;;;;;12.20;4.18;;;;;;;;;;4822097;29;20046;-73
2022/06/15 03:22:00;;;;;;;9.07;3.97;;;;;;;;;;4839148;29;20090;-71
2022/06/15 03:24:33;;;;;;;11.45;3.92;;;;;;;;;;4858619;29;20053;-72
2022/06/15 03:27:06;;;;;;;10.10;4.35;;;;;;;;;;4840157;29;20069;-71
2022/06/15 03:29:38;;;;;;;9.88;3.92;;;;;;;;;;4876809;29;20064;-73
2022/06/15 03:32:15;;;;;;;14.30;4.30;;;;;;;;;;4847325;29;20084;-71
2022/06/15 03:34:57;;;;;;;11.32;4.15;;;;;;;;;;4826508;29;20073;-71
2022/06/15 03:37:30;;;;;;;10.93;3.95;;;;;;;;;;4823407;29;20406;-72
2022/06/15 03:40:22;;;;;;;10.35;3.95;;;;;;;;;;4768170;30;20056;-71
2022/06/15 03:42:54;;;;;;;8.23;3.63;;;;;;;;;;4799997;29;20069;-72
2022/06/15 03:45:26;;;;;;;8.82;3.72;;;;;;;;;;4785117;30;20048;-71
2022/06/15 03:47:57;;;;;;;7.75;4.13;;;;;;;;;;4803409;29;20051;-70
2022/06/15 03:50:31;;;;;;;12.93;4.95;;;;;;;;;;4768904;29;20055;-72
2022/06/15 03:53:02;;;;;;;13.93;4.18;;;;;;;;;;4805869;29;20048;-72
2022/06/15 03:55:37;;;;;;;10.02;4.30;;;;;;;;;;4774005;29;20592;-71
2022/06/15 03:58:18;;;;;;;11.20;3.42;;;;;;;;;;4785268;30;20060;-71
2022/06/15 04:00:52;;;;;;;7.82;3.53;;;;;;;;;;4749302;30;20063;-70
2022/06/15 04:03:26;;;;;;;9.35;3.65;;;;;;;;;;4759658;30;20556;-71
2022/06/15 04:06:00;;;;;;;8.35;3.25;;;;;;;;;;4742114;30;20053;-71
2022/06/15 04:08:40;;;;;;;11.10;3.28;;;;;;;;;;4731959;30;20537;-70
2022/06/15 04:14:30;;;;;;;8.20;3.50;;;;;;;;;;4765539;30;20060;-71
2022/06/15 04:17:25;;;;;;;10.45;3.60;;;;;;;;;;4766969;30;20577;-71
2022/06/15 04:22:54;;;;;;;10.38;3.72;;;;;;;;;;4828318;29;20167;-71
2022/06/15 04:25:26;;;;;;;8.52;3.25;;;;;;;;;;4777815;29;20645;-71
2022/06/15 04:27:57;;;;;;;10.52;3.28;;;;;;;;;;4795261;29;20056;-71
2022/06/15 04:30:27;;;;;;;5.25;2.45;;;;;;;;;;4802791;29;20066;-71
2022/06/15 04:32:59;;;;;;;7.97;3.05;;;;;;;;;;4776034;29;20088;-71
2022/06/15 04:35:33;;;;;;;6.07;2.80;;;;;;;;;;4773378;29;20061;-71
2022/06/15 04:38:07;;;;;;;6.28;2.92;;;;;;;;;;4794654;29;20055;-71
2022/06/15 04:40:46;;;;;;;9.15;3.45;;;;;;;;;;4783397;29;20071;-71
2022/06/15 04:43:17;;;;;;;10.27;3.40;;;;;;;;;;4814722;29;20455;-71
2022/06/15 04:45:49;;;;;;;8.80;2.97;;;;;;;;;;4792269;29;20055;-70
2022/06/15 04:48:25;;;;;;;6.13;2.92;;;;;;;;;;4795185;29;20056;-70
2022/06/15 04:50:57;;;;;;;6.28;2.22;;;;;;;;;;4802351;29;20079;-70
2022/06/15 04:53:31;;;;;;;7.93;2.88;;;;;;;;;;4784494;30;20062;-71
2022/06/15 04:56:02;;;;;;;8.75;2.90;;;;;;;;;;4766391;30;20424;-72
2022/06/15 04:58:32;;;;;;;8.55;3.53;;;;;;;;;;4722467;30;20060;-73
2022/06/15 05:01:03;;;;;;;5.20;2.47;;;;;;;;;;4748345;30;20520;-71
2022/06/15 05:03:36;;;;;;;6.95;2.95;;;;;;;;;;4742654;30;20536;-72
2022/06/15 05:06:24;;;;;;;6.88;3.20;;;;;;;;;;4736212;30;20068;-72
2022/06/15 05:08:56;;;;;;;7.47;2.88;;;;;;;;;;4720349;30;20130;-72
2022/06/15 05:11:28;;;;;;;7.05;2.75;;;;;;;;;;4719575;30;20641;-72
2022/06/15 05:14:00;;;;;;;13.48;3.03;;;;;;;;;;4762800;30;20178;-71
2022/06/15 05:16:34;;;;;;;8.57;2.78;;;;;;;;;;4752031;30;20413;-71
2022/06/15 05:19:05;;;;;;;6.30;2.78;;;;;;;;;;4761446;30;20056;-71
2022/06/15 05:21:40;;;;;;;10.27;3.22;;;;;;;;;;4747977;30;20502;-72
2022/06/15 05:24:14;;;;;;;6.55;2.90;;;;;;;;;;4753433;30;20064;-72
2022/06/15 05:26:59;;;;;;;6.18;2.72;;;;;;;;;;4743717;30;20056;-72
2022/06/15 05:29:29;;;;;;;8.65;2.65;;;;;;;;;;4730457;30;20079;-72
2022/06/15 05:32:10;;;;;;;6.38;2.38;;;;;;;;;;4746949;30;20534;-71
2022/06/15 05:34:40;;;;;;;6.03;2.42;;;;;;;;;;4732253;30;20071;-71
2022/06/15 05:37:11;;;;;;;6.75;2.72;;;;;;;;;;4703697;30;20064;-71
2022/06/15 05:39:43;;;;;;;7.50;2.75;;;;;;;;;;4752404;30;20054;-72
2022/06/15 05:42:13;;;;;;;5.68;2.58;;;;;;;;;;4749881;30;20061;-71
2022/06/15 05:47:15;;;;;;;5.60;2.85;;;;;;;;;;4752618;30;20060;-72
2022/06/15 05:50:15;;;;;;;6.03;2.15;;;;;;;;;;4765964;30;20521;-71
2022/06/15 05:53:00;;;;;;;6.65;2.05;;;;;;;;;;4765793;30;20063;-70
2022/06/15 05:55:30;;;;;;;5.35;2.30;;;;;;;;;;4748216;30;20064;-71
2022/06/15 05:58:00;;;;;;;4.95;2.08;;;;;;;;;;4708485;30;20112;-71
2022/06/15 06:00:31;;;;;;;6.35;2.33;;;;;;;;;;4664396;30;20544;-71
2022/06/15 06:03:01;;;;;;;6.72;2.33;;;;;;;;;;4711695;30;20053;-72
2022/06/15 06:05:31;;;;;;;7.78;2.50;;;;;;;;;;4700820;30;20520;-71
2022/06/15 06:08:02;;;;;;;6.22;2.03;;;;;;;;;;4678716;30;20073;-72
2022/06/15 06:10:32;;;;;;;5.45;1.77;;;;;;;;;;4678659;30;20424;-71
2022/06/15 06:13:02;;;;;;;5.78;2.28;;;;;;;;;;4678256;30;20179;-72
2022/06/15 06:15:33;;;;;;;8.50;2.03;;;;;;;;;;4678680;30;20058;-71
2022/06/15 06:18:03;;;;;;;4.20;1.83;;;;;;;;;;4665666;30;20070;-72
2022/06/15 06:20:33;;;;;;;4.97;2.00;;;;;;;;;;4701622;30;20486;-71
2022/06/15 06:23:04;;;;;;;6.30;1.92;;;;;;;;;;4728499;30;20076;-73
2022/06/15 06:25:34;;;;;;;6.70;2.13;;;;;;;;;;4811276;29;20050;-72
2022/06/15 06:28:04;;;;;;;9.35;2.40;;;;;;;;;;4804377;29;20057;-72
2022/06/15 06:30:34;;;;;;;6.35;2.10;;;;;;;;;;4825983;29;20064;-72
2022/06/15 06:33:05;;;;;;;4.47;2.58;;;;;;;;;;4826235;29;20065;-72
2022/06/15 06:35:35;;;;;;;4.80;1.88;;;;;;;;;;4865274;29;20068;-72
2022/06/15 06:38:05;;;;;;;5.53;1.90;;;;;;;;;;4875195;29;20049;-72
2022/06/15 06:40:35;;;;;;;3.38;1.58;;;;;;;;;;4901534;29;20056;-72
2022/06/15 06:43:05;;;;;;;5.65;2.05;;;;;;;;;;4931577;29;20137;-72
2022/06/15 06:45:36;;;;;;;5.80;2.15;;;;;;;;;;4931777;29;20063;-71
2022/06/15 06:48:07;;;;;;;5.38;1.65;;;;;;;;;;4935272;29;20047;-71
2022/06/15 06:50:39;;;;;;;4.05;1.80;;;;;;;;;;4934831;29;20412;-71
2022/06/15 06:53:11;;;;;;;4.20;1.88;;;;;;;;;;4935023;29;20522;-71
2022/06/15 06:55:42;;;;;;;4.18;2.00;;;;;;;;;;4934749;29;20060;-70
2022/06/15 06:58:12;;;;;;;7.13;2.17;;;;;;;;;;4935065;29;20052;-71
2022/06/15 07:00:42;;;;;;;6.38;1.92;;;;;;;;;;4934765;29;20044;-71
2022/06/15 07:03:12;;;;;;;5.07;2.08;;;;;;;;;;4935876;29;20052;-71
2022/06/15 07:05:44;;;;;;;4.97;1.80;;;;;;;;;;4937240;29;20044;-72
2022/06/15 07:08:15;;;;;;;5.80;1.77;;;;;;;;;;4937042;29;20044;-72
2022/06/15 07:10:46;;;;;;;3.80;1.80;;;;;;;;;;4936872;29;20055;-72
2022/06/15 07:13:16;;;;;;;8.48;1.80;;;;;;;;;;4936985;29;20526;-71
2022/06/15 07:15:46;;;;;;;4.63;1.85;;;;;;;;;;4937012;29;20067;-72
2022/06/15 07:18:16;;;;;;;6.03;1.83;;;;;;;;;;4935826;29;20063;-72
2022/06/15 07:20:47;;;;;;;8.10;2.30;;;;;;;;;;4934392;29;20055;-71
2022/06/15 07:23:17;;;;;;;5.03;2.10;;;;;;;;;;4934586;29;20086;-72
2022/06/15 07:25:47;;;;;;;5.05;1.70;;;;;;;;;;4902864;29;20512;-72
2022/06/15 07:28:18;;;;;;;4.43;1.83;;;;;;;;;;4902745;29;20052;-71
2022/06/15 07:30:49;;;;;;;4.00;1.65;;;;;;;;;;4896243;29;20059;-72
2022/06/15 07:33:19;;;;;;;4.78;2.13;;;;;;;;;;4896454;29;20531;-72
2022/06/15 07:35:50;;;;;;;6.70;2.42;;;;;;;;;;4896381;29;20135;-72
2022/06/15 07:38:20;;;;;;;4.82;2.70;;;;;;;;;;4896537;29;20068;-71
2022/06/15 07:40:59;;;;;;;4.13;1.60;;;;;;;;;;4865258;29;20052;-71
2022/06/15 07:43:30;;;;;;;7.72;2.15;;;;;;;;;;4896376;29;20068;-72
2022/06/15 07:46:01;;;;;;;3.97;2.08;;;;;;;;;;4896008;29;20052;-72
2022/06/15 07:51:45;;;;;;;7.80;2.70;;;;;;;;;;4901289;29;20063;-71
2022/06/15 07:54:17;;;;;;;10.68;2.67;;;;;;;;;;4915297;29;20048;-71
2022/06/15 07:56:49;;;;;;;5.85;2.40;;;;;;;;;;4883309;29;20188;-72
2022/06/15 07:59:20;;;;;;;6.57;2.33;;;;;;;;;;4914844;29;20435;-71
2022/06/15 08:01:52;;;;;;;5.45;2.47;;;;;;;;;;4896903;29;20054;-71
2022/06/15 08:04:22;;;;;;;7.60;2.60;;;;;;;;;;4914528;29;20055;-71
2022/06/15 08:06:52;;;;;;;7.57;2.72;;;;;;;;;;4898688;29;20060;-72
2022/06/15 08:09:23;;;;;;;7.32;2.63;;;;;;;;;;4898756;29;20083;-72
2022/06/15 08:12:11;;;;;;;9.73;2.72;;;;;;;;;;4914748;29;20055;-72
2022/06/15 08:14:52;;;;;;;6.38;2.10;;;;;;;;;;4898615;29;20056;-71
2022/06/15 08:17:35;;;;;;;5.40;2.25;;;;;;;;;;4914943;29;20146;-72
2022/06/15 08:20:07;;;;;;;5.88;2.60;;;;;;;;;;4914357;29;20072;-71
2022/06/15 08:22:40;;;;;;;6.72;2.40;;;;;;;;;;4914374;29;20100;-71
2022/06/15 08:25:15;;;;;;;6.95;3.03;;;;;;;;;;4883057;29;20052;-73
2022/06/15 08:27:46;;;;;;;6.80;2.47;;;;;;;;;;4914795;29;20056;-72
2022/06/15 08:30:18;;;;;;;8.85;3.15;;;;;;;;;;4898485;29;20060;-72
2022/06/15 08:32:49;;;;;;;6.15;2.65;;;;;;;;;;4914360;29;20052;-72
2022/06/15 08:35:20;;;;;;;8.50;2.90;;;;;;;;;;4914305;29;20064;-74
2022/06/15 08:37:50;;;;;;;6.78;3.05;;;;;;;;;;4914218;29;20052;-72
2022/06/15 08:40:21;;;;;;;7.85;2.75;;;;;;;;;;4914200;29;20519;-76
2022/06/15 08:43:06;;;;;;;6.88;2.83;;;;;;;;;;4898373;29;20543;-72
2022/06/15 08:45:45;;;;;;;7.30;2.67;;;;;;;;;;4913950;29;20052;-71
2022/06/15 08:48:41;;;;;;;10.40;2.63;;;;;;;;;;4914137;29;20060;-72
2022/06/15 08:51:40;;;;;;;9.25;2.63;;;;;;;;;;4901230;29;20055;-73
2022/06/15 08:54:37;;;;;;;4.97;2.63;;;;;;;;;;4886076;29;20055;-72
2022/06/15 08:57:24;;;;;;;6.55;2.30;;;;;;;;;;4857873;29;20068;-72
2022/06/15 09:00:23;;;;;;;6.30;2.47;;;;;;;;;;4857880;29;20060;-72
2022/06/15 09:03:12;;;;;;;6.43;2.22;;;;;;;;;;4842256;29;20066;-73
2022/06/15 09:05:54;;;;;;;8.45;3.10;;;;;;;;;;4812076;29;20196;-75
2022/06/15 09:09:19;;;;;;;7.35;2.78;;;;;;;;;;4857287;29;20591;-73
2022/06/15 09:15:31;;;;;;;7.05;2.45;;;;;;;;;;4838957;29;20065;-69
2022/06/15 09:18:08;;;;;;;8.43;2.72;;;;;;;;;;4839372;29;20449;-70
2022/06/15 09:20:44;;;;;;;5.50;2.60;;;;;;;;;;4839185;29;20516;-70
2022/06/15 09:23:33;;;;;;;6.88;2.53;;;;;;;;;;4839363;29;20529;-70
2022/06/15 09:26:09;;;;;;;7.18;2.63;;;;;;;;;;4839148;29;20050;-70
2022/06/15 09:28:50;;;;;;;6.70;2.65;;;;;;;;;;4846509;29;20537;-70
2022/06/15 09:31:28;;;;;;;7.38;2.92;;;;;;;;;;4838987;29;20101;-71
2022/06/15 09:34:02;;;;;;;7.38;3.15;;;;;;;;;;4863334;29;20057;-71
2022/06/15 09:36:56;;;;;;;9.20;3.80;;;;;;;;;;4875996;29;20797;-71
2022/06/15 09:39:29;;;;;;;9.70;3.13;;;;;;;;;;4875817;29;20057;-71
2022/06/15 09:42:24;;;;;;;8.45;3.72;;;;;;;;;;4845271;29;20097;-71
2022/06/15 09:45:35;;;;;;;7.68;3.30;;;;;;;;;;4860461;29;20187;-71
2022/06/15 09:48:30;;;;;;;12.55;5.28;;;;;;;;;;4842080;29;20069;-71
2022/06/15 09:51:01;;;;;;;7.22;3.03;;;;;;;;;;4801481;29;20054;-71
2022/06/15 09:53:55;;;;;;;7.70;3.20;;;;;;;;;;4802329;29;20066;-71
2022/06/15 09:56:26;;;;;;;6.80;2.63;;;;;;;;;;4757478;29;20084;-71
2022/06/15 09:59:01;;;;;;;7.35;2.97;;;;;;;;;;4802270;29;20067;-72
2022/06/15 10:01:39;;;;;;;8.77;3.78;;;;;;;;;;4772430;29;20051;-72
2022/06/15 10:04:29;;;;;;;7.15;3.28;;;;;;;;;;4801652;29;20496;-70
2022/06/15 10:07:26;;;;;;;8.30;3.28;;;;;;;;;;4802134;29;20067;-68
2022/06/15 10:10:23;;;;;;;8.50;4.47;;;;;;;;;;4818335;29;20058;-68
2022/06/15 10:13:18;;;;;;;8.60;4.03;;;;;;;;;;4853337;29;20062;-68
2022/06/15 10:15:52;;;;;;;10.05;3.30;;;;;;;;;;4839224;29;20061;-68
2022/06/15 10:18:43;;;;;;;9.40;3.60;;;;;;;;;;4838860;29;20066;-70
2022/06/15 10:21:13;;;;;;;13.60;5.18;;;;;;;;;;4825597;29;20518;-69
2022/06/15 10:23:50;;;;;;;8.77;3.80;;;;;;;;;;4842170;29;20088;-68
2022/06/15 10:26:29;;;;;;;16.63;4.28;;;;;;;;;;4841913;29;20054;-68
2022/06/15 10:29:24;;;;;;;7.72;3.83;;;;;;;;;;4853697;29;20430;-69
2022/06/15 10:32:07;;;;;;;10.82;3.33;;;;;;;;;;4860096;29;20049;-70
2022/06/15 10:34:47;;;;;;;7.15;3.17;;;;;;;;;;4860173;29;20061;-70
2022/06/15 10:37:20;;;;;;;8.00;2.85;;;;;;;;;;4860310;29;20053;-69
2022/06/15 10:39:53;;;;;;;7.35;3.17;;;;;;;;;;4860239;29;20045;-69
2022/06/15 10:42:36;;;;;;;10.65;3.53;;;;;;;;;;4849035;29;20057;-69
2022/06/15 10:45:19;;;;;;;7.10;3.30;;;;;;;;;;4878445;29;20053;-68
2022/06/15 10:48:03;;;;;;;10.32;3.10;;;;;;;;;;4878568;29;20057;-69
2022/06/15 10:50:59;;;;;;;9.35;3.40;;;;;;;;;;4896953;29;20048;-69
2022/06/15 10:53:43;;;;;;;6.78;2.97;;;;;;;;;;4896876;29;20056;-70
2022/06/15 11:02:38;;;;;;;11.35;4.57;;;;;;;;;;4835131;29;20055;-68
2022/06/15 11:05:21;;;;;;;14.98;4.45;;;;;;;;;;4896932;29;20063;-69
2022/06/15 11:07:58;;;;;;;10.02;3.42;;;;;;;;;;4881787;29;20057;-69
2022/06/15 11:10:28;;;;;;;9.77;4.10;;;;;;;;;;4915803;29;20067;-69
2022/06/15 11:13:02;;;;;;;10.77;3.67;;;;;;;;;;4868713;29;20063;-69
2022/06/15 11:18:38;;;;;;;9.93;3.72;;;;;;;;;;4896580;29;20076;-69
2022/06/15 11:21:12;;;;;;;10.00;3.97;;;;;;;;;;4846326;29;20069;-70
2022/06/15 11:24:03;;;;;;;10.93;4.72;;;;;;;;;;4874111;29;20053;-69
2022/06/15 11:26:57;;;;;;;14.00;5.57;;;;;;;;;;4877616;29;20057;-69
2022/06/15 11:30:00;;;;;;;11.95;5.78;;;;;;;;;;4855439;29;20054;-69
2022/06/15 11:32:34;;;;;;;13.18;6.10;;;;;;;;;;4822109;29;20074;-69
2022/06/15 11:35:06;;;;;;;11.30;5.93;;;;;;;;;;4822328;29;20066;-69
2022/06/15 11:38:02;;;;;;;14.30;6.32;;;;;;;;;;4822580;29;20069;-69
2022/06/15 11:40:46;;;;;;;14.75;6.25;;;;;;;;;;4807186;29;20054;-69
2022/06/15 11:43:44;;;;;;;12.85;5.22;;;;;;;;;;4837082;29;20058;-69
2022/06/15 11:46:46;;;;;;;9.98;5.20;;;;;;;;;;4822469;29;20165;-69
2022/06/15 11:49:32;;;;;;;10.90;4.30;;;;;;;;;;4839755;29;20066;-69
2022/06/15 11:52:40;;;;;;;12.40;5.28;;;;;;;;;;4840505;29;20054;-70
2022/06/15 11:55:22;;;;;;;9.93;4.45;;;;;;;;;;4843076;29;20070;-70
2022/06/15 11:58:11;;;;;;;11.25;4.85;;;;;;;;;;4813417;29;20244;-69
2022/06/15 12:01:22;;;;;;;20.65;5.75;;;;;;;;;;4858865;29;20058;-69
2022/06/15 12:04:35;;;;;;;13.63;5.68;;;;;;;;;;4840327;29;20098;-69
2022/06/15 12:07:19;;;;;;;12.77;5.82;;;;;;;;;;4859787;29;20068;-69
2022/06/15 12:10:11;;;;;;;13.07;5.97;;;;;;;;;;4914902;29;20401;-71
2022/06/15 12:12:47;;;;;;;19.77;8.73;;;;;;;;;;4914529;29;20587;-70
2022/06/15 12:15:49;;;;;;;20.50;8.10;;;;;;;;;;4914648;29;20048;-68
2022/06/15 12:18:45;;;;;;;16.02;6.72;;;;;;;;;;4914510;29;20067;-70
2022/06/15 12:21:19;;;;;;;19.33;7.03;;;;;;;;;;4898932;29;20060;-69
2022/06/15 12:23:59;;;;;;;15.50;7.50;;;;;;;;;;4914415;29;20048;-69
2022/06/15 12:26:36;;;;;;;23.90;9.48;;;;;;;;;;4914071;29;20056;-69
2022/06/15 12:29:16;;;;;;;19.55;8.88;;;;;;;;;;4914066;29;20095;-69
2022/06/15 12:32:25;;;;;;;30.23;10.52;;;;;;;;;;4914380;29;20051;-69
2022/06/15 12:35:10;;;;;;;23.48;9.25;;;;;;;;;;4914375;29;20064;-69
2022/06/15 12:38:09;;;;;;;;;;;;;;;;;;4868013;29;20165;-70
2022/06/15 12:40:49;;;;;;;22.20;8.07;;;;;;;;;;4921534;29;19926;-70
2022/06/15 12:43:42;;;;;;;14.07;7.55;;;;;;;;;;4932365;29;20051;-70
2022/06/15 12:46:19;;;;;;;15.27;8.40;;;;;;;;;;4932943;29;20064;-70
2022/06/15 12:48:55;;;;;;;17.20;9.35;;;;;;;;;;4918375;29;20056;-71
2022/06/15 12:51:24;;;;;;;17.02;8.18;;;;;;;;;;4933048;29;20059;-71
2022/06/15 12:54:30;;;;;;;20.00;9.52;;;;;;;;;;4932939;29;20055;-70
2022/06/15 12:57:27;;;;;;;13.85;6.65;;;;;;;;;;4842934;29;20070;-72
2022/06/15 13:00:16;;;;;;;17.13;8.57;;;;;;;;;;4857570;29;20069;-72
2022/06/15 13:03:10;;;;;;;22.75;10.48;;;;;;;;;;4842842;29;20463;-72
2022/06/15 13:05:40;;;;;;;21.95;11.20;;;;;;;;;;4842215;29;20173;-71
2022/06/15 13:08:16;;;;;;;20.45;11.05;;;;;;;;;;4826896;29;20479;-72
2022/06/15 13:10:55;;;;;;;21.13;9.30;;;;;;;;;;4857457;29;20053;-71
2022/06/15 13:13:33;;;;;;;41.80;17.85;;;;;;;;;;4812040;29;20108;-71
2022/06/15 13:16:10;;;;;;;87.55;40.38;;;;;;;;;;4856626;29;20062;-72
2022/06/15 13:18:53;;;;;;;104.60;47.22;;;;;;;;;;4824429;29;20049;-72
2022/06/15 13:21:27;;;;;;;22.73;10.27;;;;;;;;;;4851179;29;20061;-72
2022/06/15 13:24:07;;;;;;;39.33;16.35;;;;;;;;;;4857722;29;20097;-73
2022/06/15 13:26:37;;;;;;;25.90;10.27;;;;;;;;;;4857500;29;20072;-72
2022/06/15 13:29:11;;;;;;;30.85;14.25;;;;;;;;;;4857248;29;20066;-73
2022/06/15 13:31:45;;;;;;;30.27;14.63;;;;;;;;;;4857374;29;20052;-72
2022/06/15 13:34:38;;;;;;;12.95;7.38;;;;;;;;;;4901956;29;20429;-72
2022/06/15 13:37:23;;;;;;;13.88;7.20;;;;;;;;;;4913507;29;20060;-72
2022/06/15 13:39:56;;;;;;;41.75;23.52;;;;;;;;;;4913253;29;20555;-72
2022/06/15 13:42:37;;;;;;;9.68;5.03;;;;;;;;;;4916225;29;20056;-71
2022/06/15 13:45:22;;;;;;;10.82;4.88;;;;;;;;;;4933429;29;20043;-72
2022/06/15 13:47:58;;;;;;;;;;;;;;;;;;4934986;29;20048;-72
2022/06/15 13:50:34;;;;;;;10.05;3.40;;;;;;;;;;4951063;29;19926;-73
2022/06/15 13:53:16;;;;;;;4.63;1.63;;;;;;;;;;4951177;29;20060;-72
2022/06/15 13:56:20;;;;;;;5.63;2.42;;;;;;;;;;4906419;29;20051;-72
2022/06/15 13:59:22;;;;;;;5.55;1.63;;;;;;;;;;4934125;29;20550;-74
2022/06/15 14:02:16;;;;;;;4.13;1.88;;;;;;;;;;4935969;29;20062;-72
2022/06/15 14:05:17;;;;;;;2.03;1.20;;;;;;;;;;4936059;29;20425;-74
2022/06/15 14:08:09;;;;;;;3.95;2.30;;;;;;;;;;4888915;29;20051;-73
2022/06/15 14:10:40;;;;;;;2.22;1.02;;;;;;;;;;4936136;29;20064;-75
2022/06/15 14:13:38;;;;;;;2.83;1.20;;;;;;;;;;4920057;29;20060;-67
2022/06/15 14:16:09;;;;;;;3.83;1.40;;;;;;;;;;4881980;29;20065;-74
2022/06/15 14:18:43;;;;;;;3.17;1.25;;;;;;;;;;4897731;29;20060;-76
2022/06/15 14:21:16;;;;;;;5.28;1.90;;;;;;;;;;4882315;29;20052;-75
2022/06/15 14:23:47;;;;;;;2.90;1.50;;;;;;;;;;4897745;29;20056;-74
2022/06/15 14:26:22;;;;;;;2.78;1.08;;;;;;;;;;4897875;29;20044;-76
2022/06/15 14:29:03;;;;;;;3.65;1.17;;;;;;;;;;4850964;29;20538;-75
2022/06/15 14:31:36;;;;;;;3.78;1.20;;;;;;;;;;4866949;29;20056;-74
2022/06/15 14:34:16;;;;;;;3.38;1.17;;;;;;;;;;4893842;29;20057;-76
2022/06/15 14:36:57;;;;;;;2.83;1.10;;;;;;;;;;4878886;29;20438;-73
2022/06/15 14:39:32;;;;;;;3.72;1.70;;;;;;;;;;4878974;29;20061;-74
2022/06/15 14:42:25;;;;;;;2.53;1.27;;;;;;;;;;4847995;29;20401;-74
2022/06/15 14:45:14;;;;;;;11.75;5.25;;;;;;;;;;4878732;29;20057;-75
2022/06/15 14:48:05;;;;;;;6.43;1.73;;;;;;;;;;4878602;29;20506;-71
2022/06/15 14:50:37;;;;;;;2.75;1.50;;;;;;;;;;4862969;29;20056;-75
2022/06/15 14:53:20;;;;;;;4.40;1.35;;;;;;;;;;4905846;29;20075;-74
2022/06/15 14:56:00;;;;;;;3.03;1.33;;;;;;;;;;4935133;29;20047;-76
2022/06/15 14:58:31;;;;;;;4.22;1.38;;;;;;;;;;4935201;29;20403;-75
2022/06/15 15:01:13;;;;;;;2.67;1.23;;;;;;;;;;4919507;29;20056;-74
2022/06/15 15:03:44;;;;;;;4.03;1.20;;;;;;;;;;4935014;29;20554;-73
2022/06/15 15:06:18;;;;;;;2.90;1.38;;;;;;;;;;4932330;29;20121;-75
2022/06/15 15:08:52;;;;;;;6.90;3.20;;;;;;;;;;4937122;29;20047;-76
2022/06/15 15:11:38;;;;;;;9.15;4.00;;;;;;;;;;4936898;29;20113;-74
2022/06/15 15:14:15;;;;;;;2.95;1.42;;;;;;;;;;4934430;29;20059;-76
2022/06/15 15:16:56;;;;;;;2.40;1.23;;;;;;;;;;4919223;29;20480;-76
2022/06/15 15:19:37;;;;;;;5.40;2.65;;;;;;;;;;4902902;29;20056;-76
2022/06/15 15:22:17;;;;;;;3.03;1.15;;;;;;;;;;4865317;29;20059;-77
2022/06/15 15:24:49;;;;;;;3.70;1.20;;;;;;;;;;4896869;29;20067;-74
2022/06/15 15:39:13;;;;;;;3.58;1.55;;;;;;;;;;4859061;29;20754;-76
2022/06/15 15:41:44;;;;;;;3.42;1.67;;;;;;;;;;4859701;29;20053;-77
2022/06/15 15:44:16;;;;;;;4.30;1.85;;;;;;;;;;4877108;29;20053;-75
2022/06/15 15:46:47;;;;;;;3.08;1.52;;;;;;;;;;4879918;29;20068;-76
2022/06/15 15:49:17;;;;;;;5.25;1.63;;;;;;;;;;4851576;29;20061;-77
2022/06/15 15:51:48;;;;;;;3.58;1.88;;;;;;;;;;4881371;29;20068;-76
2022/06/15 15:54:19;;;;;;;3.53;1.27;;;;;;;;;;4895919;29;20051;-73
2022/06/15 15:56:50;;;;;;;2.83;1.13;;;;;;;;;;4896425;29;20057;-76
2022/06/15 15:59:25;;;;;;;3.40;1.50;;;;;;;;;;4858624;29;20057;-76
2022/06/15 16:01:57;;;;;;;2.33;1.20;;;;;;;;;;4877589;29;20164;-78
2022/06/15 16:04:35;;;;;;;2.42;1.17;;;;;;;;;;4877391;29;20057;-75
2022/06/15 16:07:08;;;;;;;3.58;1.45;;;;;;;;;;4862038;29;20056;-78
2022/06/15 16:09:39;;;;;;;3.00;1.02;;;;;;;;;;4877083;29;20061;-72
2022/06/15 16:12:10;;;;;;;5.25;0.88;;;;;;;;;;4877132;29;20060;-77
2022/06/15 16:14:41;;;;;;;2.53;1.20;;;;;;;;;;4892420;29;20134;-74
2022/06/15 16:17:11;;;;;;;9.52;2.95;;;;;;;;;;4914791;29;20052;-76
2022/06/15 16:19:42;;;;;;;4.65;1.38;;;;;;;;;;4867850;29;20056;-75
2022/06/15 16:22:12;;;;;;;4.85;2.63;;;;;;;;;;4926374;29;20520;-76